Time;durP1;ratioP1;P1;durP2;ratioP2;P2;SDS_P1;SDS_P2;PMS_P1;PMS_P2;Temp;Humidity;BMP_temperature;BMP_pressure;BME280_temperature;BME280_humidity;BME280_pressure;Samples;Min_cycle;Max_cycle;Signal;HPM_P1;HPM_P2
2024/02/20 00:02:21;;;;;;;1.60;1.20;;;7.50;98.20;;;;;;6183756;23;20495;-84
2024/02/20 00:04:48;;;;;;;1.60;1.20;;;7.50;98.20;;;;;;6219483;23;20478;-83
2024/02/20 00:07:17;;;;;;;1.63;1.30;;;7.40;98.20;;;;;;6181752;23;20849;-84
2024/02/20 00:09:44;;;;;;;1.60;1.20;;;7.40;98.20;;;;;;6209742;23;20439;-84
2024/02/20 00:12:12;;;;;;;1.60;1.30;;;7.40;98.20;;;;;;6182859;23;20458;-84
2024/02/20 00:14:42;;;;;;;1.67;1.23;;;7.40;98.20;;;;;;6207902;23;20531;-84
2024/02/20 00:17:08;;;;;;;1.63;1.27;;;7.30;98.20;;;;;;6184035;23;20470;-84
2024/02/20 00:19:38;;;;;;;3.10;2.07;;;7.30;98.20;;;;;;6208234;23;20439;-84
2024/02/20 00:22:05;;;;;;;1.60;1.20;;;7.30;98.20;;;;;;6188415;23;20447;-84
2024/02/20 00:24:32;;;;;;;2.87;2.67;;;7.30;98.20;;;;;;6206204;23;20429;-84
2024/02/20 00:27:03;;;;;;;1.60;1.30;;;7.30;98.20;;;;;;6185707;23;20444;-83
2024/02/20 00:29:31;;;;;;;1.63;1.30;;;7.20;98.20;;;;;;6205105;23;20533;-84
2024/02/20 00:31:58;;;;;;;1.60;1.30;;;7.20;98.20;;;;;;6184923;23;20447;-84
2024/02/20 00:34:24;;;;;;;1.63;1.27;;;7.20;98.20;;;;;;6204487;23;20419;-84
2024/02/20 00:36:52;;;;;;;1.60;1.20;;;7.20;98.20;;;;;;6188449;23;20471;-83
2024/02/20 00:39:19;;;;;;;1.63;1.20;;;7.20;98.20;;;;;;6206359;23;20447;-83
2024/02/20 00:41:46;;;;;;;1.60;1.30;;;7.20;98.20;;;;;;6184899;23;20448;-83
2024/02/20 00:44:13;;;;;;;1.60;1.20;;;7.20;98.20;;;;;;6196252;23;20423;-82
2024/02/20 00:46:41;;;;;;;1.60;1.20;;;7.10;98.20;;;;;;6183017;23;20467;-83
2024/02/20 00:49:08;;;;;;;1.60;1.20;;;7.10;98.20;;;;;;6207308;23;20483;-83
2024/02/20 00:51:35;;;;;;;1.60;1.20;;;7.10;98.20;;;;;;6185300;23;21051;-82
2024/02/20 00:54:03;;;;;;;1.60;1.30;;;7.10;98.20;;;;;;6194294;23;20926;-82
2024/02/20 00:56:30;;;;;;;1.60;1.20;;;7.10;98.20;;;;;;6186475;23;21031;-83
2024/02/20 00:58:57;;;;;;;1.60;1.20;;;7.10;98.20;;;;;;6195315;23;20494;-82
2024/02/20 01:01:25;;;;;;;1.60;1.20;;;7.10;98.20;;;;;;6190261;23;20559;-82
2024/02/20 01:03:53;;;;;;;1.70;1.30;;;7.10;98.20;;;;;;6193729;23;20415;-83
2024/02/20 01:06:19;;;;;;;1.63;1.23;;;7.10;98.20;;;;;;6196297;23;21115;-83
2024/02/20 01:08:46;;;;;;;1.70;1.37;;;7.10;98.20;;;;;;6203071;23;20505;-83
2024/02/20 01:11:13;;;;;;;1.60;1.30;;;7.10;98.20;;;;;;6198654;23;20449;-82
2024/02/20 01:13:41;;;;;;;1.60;1.20;;;7.10;98.20;;;;;;6191196;23;20783;-83
2024/02/20 01:16:08;;;;;;;1.60;1.27;;;7.00;98.20;;;;;;6200298;23;20876;-83
2024/02/20 01:18:37;;;;;;;1.60;1.30;;;7.00;98.20;;;;;;6201344;23;20496;-83
2024/02/20 01:21:06;;;;;;;1.63;1.30;;;7.00;98.20;;;;;;6192048;23;20435;-82
2024/02/20 01:23:32;;;;;;;1.60;1.30;;;7.00;98.20;;;;;;6198610;23;20420;-83
2024/02/20 01:25:59;;;;;;;1.67;1.30;;;7.10;98.20;;;;;;6194671;23;20414;-83
2024/02/20 01:28:26;;;;;;;1.67;1.30;;;7.10;98.20;;;;;;6190326;23;20423;-82
2024/02/20 01:30:53;;;;;;;1.63;1.20;;;7.10;98.20;;;;;;6207359;23;20509;-81
2024/02/20 01:33:20;;;;;;;1.60;1.20;;;7.20;98.20;;;;;;6187447;23;20484;-83
2024/02/20 01:35:47;;;;;;;1.60;1.30;;;7.20;98.20;;;;;;6215105;23;20481;-83
2024/02/20 01:38:15;;;;;;;1.60;1.20;;;7.20;98.20;;;;;;6186358;23;20510;-83
2024/02/20 01:40:43;;;;;;;1.60;1.23;;;7.20;98.20;;;;;;6213363;23;20447;-83
2024/02/20 01:43:12;;;;;;;1.63;1.30;;;7.20;98.20;;;;;;6171037;23;20446;-82
2024/02/20 01:45:39;;;;;;;1.60;1.20;;;7.20;98.20;;;;;;6221029;23;20417;-82
2024/02/20 01:48:07;;;;;;;1.60;1.30;;;7.20;98.20;;;;;;6170533;23;20463;-82
2024/02/20 01:50:35;;;;;;;1.60;1.30;;;7.20;98.20;;;;;;6211945;23;20438;-82
2024/02/20 01:53:03;;;;;;;1.60;1.23;;;7.20;98.20;;;;;;6169542;23;20457;-82
2024/02/20 01:55:33;;;;;;;1.63;1.33;;;7.20;98.20;;;;;;6213047;23;20447;-82
2024/02/20 01:58:00;;;;;;;1.60;1.27;;;7.20;98.20;;;;;;6172413;23;20455;-82
2024/02/20 02:00:27;;;;;;;1.60;1.20;;;7.20;98.20;;;;;;6222549;23;20453;-82
2024/02/20 02:02:54;;;;;;;1.60;1.20;;;7.30;98.20;;;;;;6171075;23;20451;-82
2024/02/20 02:05:21;;;;;;;1.63;1.30;;;7.30;98.20;;;;;;6211367;23;20423;-82
2024/02/20 02:07:49;;;;;;;1.60;1.20;;;7.30;98.20;;;;;;6173054;23;20448;-82
2024/02/20 02:10:16;;;;;;;1.63;1.30;;;7.30;98.20;;;;;;6211919;23;20453;-82
2024/02/20 02:12:46;;;;;;;1.60;1.20;;;7.20;98.20;;;;;;6172276;23;20474;-82
2024/02/20 02:15:13;;;;;;;1.60;1.30;;;7.20;98.20;;;;;;6223641;23;20507;-82
2024/02/20 02:17:40;;;;;;;1.60;1.27;;;7.20;98.20;;;;;;6175495;23;20447;-82
2024/02/20 02:20:08;;;;;;;1.60;1.30;;;7.20;98.20;;;;;;6224136;23;20459;-82
2024/02/20 02:22:35;;;;;;;1.60;1.20;;;7.20;98.20;;;;;;6179531;23;20479;-82
2024/02/20 02:25:03;;;;;;;1.60;1.30;;;7.10;98.20;;;;;;6212077;23;20422;-82
2024/02/20 02:27:31;;;;;;;1.60;1.30;;;7.10;98.20;;;;;;6176661;23;20872;-82
2024/02/20 02:29:58;;;;;;;1.60;1.20;;;7.10;98.20;;;;;;6222693;23;20434;-83
2024/02/20 02:32:26;;;;;;;1.60;1.30;;;7.10;98.20;;;;;;6178699;23;20526;-82
2024/02/20 02:34:53;;;;;;;1.60;1.20;;;7.10;98.20;;;;;;6203671;23;20421;-82
2024/02/20 02:37:20;;;;;;;1.60;1.20;;;7.10;98.20;;;;;;6178736;23;20471;-82
2024/02/20 02:39:47;;;;;;;1.60;1.30;;;7.10;98.20;;;;;;6219400;23;20474;-82
2024/02/20 02:42:14;;;;;;;1.60;1.30;;;7.10;98.20;;;;;;6179273;23;20531;-84
2024/02/20 02:44:43;;;;;;;1.60;1.30;;;7.00;98.20;;;;;;6215606;23;20447;-83
2024/02/20 02:47:10;;;;;;;1.60;1.20;;;7.00;98.20;;;;;;6183597;23;20447;-83
2024/02/20 02:49:37;;;;;;;1.70;1.40;;;7.00;98.20;;;;;;6208114;23;20478;-83
2024/02/20 02:52:05;;;;;;;1.60;1.30;;;7.00;98.20;;;;;;6182665;23;20551;-83
2024/02/20 02:54:34;;;;;;;1.67;1.30;;;6.90;98.20;;;;;;6212788;23;20888;-83
2024/02/20 02:57:02;;;;;;;1.70;1.37;;;6.90;98.20;;;;;;6182363;23;20454;-84
2024/02/20 02:59:28;;;;;;;1.63;1.30;;;6.90;98.20;;;;;;6214869;23;20978;-83
2024/02/20 03:01:57;;;;;;;1.60;1.30;;;6.90;98.20;;;;;;6189533;23;20448;-83
2024/02/20 03:04:24;;;;;;;1.70;1.50;;;6.90;98.20;;;;;;6202625;23;20505;-83
2024/02/20 03:06:50;;;;;;;1.60;1.20;;;6.90;98.20;;;;;;6184669;23;20991;-83
2024/02/20 03:09:18;;;;;;;1.70;1.40;;;6.90;98.20;;;;;;6211095;23;20474;-83
2024/02/20 03:11:45;;;;;;;1.60;1.30;;;6.80;98.20;;;;;;6186496;23;21311;-83
2024/02/20 03:14:12;;;;;;;1.70;1.40;;;6.80;98.20;;;;;;6208882;23;20493;-83
2024/02/20 03:16:39;;;;;;;1.60;1.30;;;6.80;98.20;;;;;;6186351;23;20999;-83
2024/02/20 03:19:07;;;;;;;1.70;1.40;;;6.80;98.20;;;;;;6208719;23;20565;-83
2024/02/20 03:21:36;;;;;;;1.63;1.40;;;6.80;98.20;;;;;;6187488;23;20448;-83
2024/02/20 03:24:04;;;;;;;1.60;1.30;;;6.80;98.20;;;;;;6197640;23;20426;-83
2024/02/20 03:26:31;;;;;;;1.60;1.20;;;6.80;98.20;;;;;;6189215;23;20451;-83
2024/02/20 03:28:58;;;;;;;1.60;1.30;;;6.80;98.20;;;;;;6197080;23;20986;-83
2024/02/20 03:31:24;;;;;;;1.60;1.20;;;6.80;98.20;;;;;;6190268;23;20799;-83
2024/02/20 03:33:53;;;;;;;1.67;1.30;;;6.80;98.20;;;;;;6194460;23;20483;-83
2024/02/20 03:36:25;;;;;;;1.63;1.30;;;6.80;98.20;;;;;;6189954;23;20454;-83
2024/02/20 03:38:51;;;;;;;1.60;1.20;;;6.80;98.20;;;;;;6205725;23;20457;-83
2024/02/20 03:41:18;;;;;;;1.60;1.30;;;6.80;98.20;;;;;;6189809;23;20444;-83
2024/02/20 03:43:45;;;;;;;1.60;1.30;;;6.80;98.20;;;;;;6194240;23;20501;-83
2024/02/20 03:46:12;;;;;;;1.63;1.30;;;6.80;98.20;;;;;;6200444;23;20440;-83
2024/02/20 03:48:39;;;;;;;1.60;1.23;;;6.80;98.20;;;;;;6191765;23;20415;-83
2024/02/20 03:51:09;;;;;;;1.60;1.30;;;6.80;98.20;;;;;;6193103;23;22219;-82
2024/02/20 03:53:37;;;;;;;1.67;1.30;;;6.80;98.20;;;;;;6189169;23;20415;-83
2024/02/20 03:56:04;;;;;;;1.60;1.20;;;6.80;98.20;;;;;;6192196;23;20450;-83
2024/02/20 03:58:32;;;;;;;1.67;1.30;;;6.80;98.20;;;;;;6190263;23;20415;-83
2024/02/20 04:00:59;;;;;;;1.60;1.30;;;6.90;98.20;;;;;;6204136;23;20493;-83
2024/02/20 04:03:26;;;;;;;1.67;1.30;;;6.90;98.20;;;;;;6197193;23;20473;-83
2024/02/20 04:05:53;;;;;;;1.60;1.20;;;6.90;98.20;;;;;;6203647;23;20448;-82
2024/02/20 04:08:20;;;;;;;1.63;1.30;;;6.90;98.20;;;;;;6195610;23;20520;-82
2024/02/20 04:10:48;;;;;;;1.60;1.23;;;6.90;98.20;;;;;;6206381;23;20438;-82
2024/02/20 04:13:15;;;;;;;1.60;1.20;;;6.90;98.20;;;;;;6182577;23;20427;-82
2024/02/20 04:15:41;;;;;;;1.63;1.30;;;6.90;98.20;;;;;;6211149;23;20439;-83
2024/02/20 04:18:08;;;;;;;1.60;1.30;;;6.90;98.20;;;;;;6168841;23;20454;-82
2024/02/20 04:20:35;;;;;;;1.60;1.30;;;6.90;98.20;;;;;;6209921;23;20447;-82
2024/02/20 04:23:03;;;;;;;1.60;1.27;;;6.80;98.20;;;;;;6169341;23;20506;-82
2024/02/20 04:25:39;;;;;;;1.60;1.30;;;6.80;98.20;;;;;;6219553;23;20419;-84
2024/02/20 04:28:08;;;;;;;1.60;1.30;;;6.90;98.20;;;;;;6170091;23;21013;-83
2024/02/20 04:30:35;;;;;;;1.60;1.20;;;6.80;98.20;;;;;;6220747;23;20438;-83
2024/02/20 04:33:02;;;;;;;1.60;1.30;;;6.80;98.20;;;;;;6171164;23;20447;-84
2024/02/20 04:35:29;;;;;;;1.60;1.30;;;6.80;98.20;;;;;;6209261;23;20423;-83
2024/02/20 04:37:56;;;;;;;1.70;1.40;;;6.80;98.20;;;;;;6171397;23;20471;-83
2024/02/20 04:40:24;;;;;;;1.60;1.20;;;6.80;98.20;;;;;;6216136;22;20469;-87
2024/02/20 04:42:51;;;;;;;1.60;1.20;;;6.80;98.20;;;;;;6167557;23;20743;-87
2024/02/20 04:45:19;;;;;;;2.47;2.27;;;6.80;98.20;;;;;;6219780;23;20414;-86
2024/02/20 04:47:46;;;;;;;1.60;1.20;;;6.80;98.20;;;;;;6168352;23;20538;-88
2024/02/20 04:50:17;;;;;;;1.60;1.20;;;6.80;98.20;;;;;;6219138;23;20427;-86
2024/02/20 04:52:44;;;;;;;1.60;1.20;;;6.80;98.20;;;;;;6171830;23;20538;-86
2024/02/20 04:55:11;;;;;;;1.60;1.30;;;6.80;98.20;;;;;;6210016;23;20501;-88
2024/02/20 04:57:50;;;;;;;1.60;1.30;;;6.80;98.20;;;;;;6172320;23;20490;-88
2024/02/20 05:00:19;;;;;;;1.60;1.20;;;6.80;98.20;;;;;;6217852;23;20445;-87
2024/02/20 05:02:46;;;;;;;1.67;1.30;;;6.70;98.20;;;;;;6167275;23;20456;-86
2024/02/20 05:05:14;;;;;;;1.67;1.33;;;6.70;98.20;;;;;;6208943;23;20419;-87
2024/02/20 05:07:41;;;;;;;1.60;1.30;;;6.70;98.20;;;;;;6167657;23;20470;-86
2024/02/20 05:10:10;;;;;;;1.60;1.20;;;6.70;98.20;;;;;;6220601;23;20449;-87
2024/02/20 05:12:37;;;;;;;1.60;1.30;;;6.60;98.20;;;;;;6171745;23;20454;-87
2024/02/20 05:15:08;;;;;;;1.70;1.40;;;6.60;98.20;;;;;;6219760;23;20498;-88
2024/02/20 05:17:37;;;;;;;1.60;1.30;;;6.60;98.20;;;;;;6171302;23;20447;-87
2024/02/20 05:20:04;;;;;;;1.60;1.30;;;6.60;98.20;;;;;;6209433;23;20522;-87
2024/02/20 05:22:31;;;;;;;1.60;1.23;;;6.60;98.20;;;;;;6175709;23;20447;-87
2024/02/20 05:24:58;;;;;;;1.70;1.40;;;6.60;98.20;;;;;;6217633;23;20419;-86
2024/02/20 05:27:25;;;;;;;1.60;1.30;;;6.60;98.20;;;;;;6174696;23;20542;-86
2024/02/20 05:29:51;;;;;;;1.70;1.50;;;6.60;98.20;;;;;;6218722;23;20971;-88
2024/02/20 05:32:19;;;;;;;1.60;1.30;;;6.60;98.20;;;;;;6181003;23;20448;-86
2024/02/20 05:34:48;;;;;;;1.70;1.30;;;6.60;98.20;;;;;;6217242;23;20411;-87
2024/02/20 05:37:15;;;;;;;1.63;1.30;;;6.60;98.20;;;;;;6177798;23;20447;-87
2024/02/20 05:39:41;;;;;;;1.60;1.30;;;6.60;98.20;;;;;;6204256;23;20471;-86
2024/02/20 05:42:09;;;;;;;1.70;1.40;;;6.60;98.20;;;;;;6179973;23;20550;-88
2024/02/20 05:44:38;;;;;;;1.70;1.40;;;6.60;98.20;;;;;;6206378;23;20423;-85
2024/02/20 05:47:05;;;;;;;1.60;1.30;;;6.60;98.20;;;;;;6185401;23;20629;-86
2024/02/20 05:49:32;;;;;;;1.67;1.30;;;6.60;98.20;;;;;;6214270;23;20471;-85
2024/02/20 05:52:01;;;;;;;1.63;1.30;;;6.50;98.20;;;;;;6183945;23;20502;-87
2024/02/20 05:54:27;;;;;;;1.63;1.30;;;6.50;98.20;;;;;;6212974;23;20414;-86
2024/02/20 05:56:54;;;;;;;1.60;1.30;;;6.50;98.20;;;;;;6187413;23;20495;-87
2024/02/20 05:59:21;;;;;;;1.63;1.30;;;6.40;98.20;;;;;;6199300;23;20423;-87
2024/02/20 06:01:48;;;;;;;1.60;1.20;;;6.40;98.20;;;;;;6188377;23;20454;-87
2024/02/20 06:04:17;;;;;;;1.60;1.20;;;6.40;98.20;;;;;;6207176;23;20454;-88
2024/02/20 06:06:46;;;;;;;1.60;1.30;;;6.40;98.20;;;;;;6192579;23;20439;-85
2024/02/20 06:09:14;;;;;;;1.63;1.30;;;6.40;98.20;;;;;;6202713;23;20415;-87
2024/02/20 06:11:41;;;;;;;1.60;1.30;;;6.30;98.20;;;;;;6189743;23;20452;-86
2024/02/20 06:14:08;;;;;;;1.60;1.30;;;6.30;98.20;;;;;;6209175;23;20837;-88
2024/02/20 06:16:34;;;;;;;1.60;1.30;;;6.30;98.20;;;;;;6190848;23;20451;-86
2024/02/20 06:19:01;;;;;;;1.63;1.30;;;6.30;98.20;;;;;;6200307;23;20479;-85
2024/02/20 06:21:28;;;;;;;1.60;1.30;;;6.30;98.20;;;;;;6189624;23;20481;-87
2024/02/20 06:23:55;;;;;;;1.63;1.30;;;6.30;98.20;;;;;;6209338;23;20419;-87
2024/02/20 06:26:27;;;;;;;1.70;1.50;;;6.30;98.20;;;;;;6191199;23;20527;-86
2024/02/20 06:28:54;;;;;;;1.60;1.30;;;6.30;98.20;;;;;;6210914;23;20675;-86
2024/02/20 06:31:26;;;;;;;1.60;1.30;;;6.30;98.20;;;;;;6194553;23;20523;-87
2024/02/20 06:33:53;;;;;;;1.60;1.30;;;6.30;98.20;;;;;;6209276;23;20446;-88
2024/02/20 06:36:20;;;;;;;1.60;1.30;;;6.30;98.20;;;;;;6202421;23;20478;-86
2024/02/20 06:38:46;;;;;;;1.67;1.30;;;6.30;98.20;;;;;;6197248;23;20479;-85
2024/02/20 06:41:13;;;;;;;1.70;1.40;;;6.30;98.20;;;;;;6197389;23;20494;-87
2024/02/20 06:43:42;;;;;;;1.60;1.30;;;6.30;98.20;;;;;;6197314;23;20483;-87
2024/02/20 06:46:09;;;;;;;1.60;1.30;;;6.30;98.20;;;;;;6198617;23;20451;-86
2024/02/20 06:48:36;;;;;;;1.60;1.30;;;6.30;98.20;;;;;;6207334;23;20463;-85
2024/02/20 06:51:04;;;;;;;1.60;1.30;;;6.30;98.20;;;;;;6212617;23;20771;-85
2024/02/20 06:53:30;;;;;;;1.60;1.30;;;6.40;98.20;;;;;;6206917;23;20426;-85
2024/02/20 06:55:57;;;;;;;1.60;1.30;;;6.40;98.20;;;;;;6199587;23;20487;-85
2024/02/20 06:58:24;;;;;;;1.60;1.20;;;6.40;98.20;;;;;;6203602;23;20525;-85
2024/02/20 07:00:53;;;;;;;1.60;1.23;;;6.50;98.20;;;;;;6195940;23;20439;-88
2024/02/20 07:03:24;;;;;;;1.60;1.30;;;6.50;98.20;;;;;;6193941;23;20438;-88
2024/02/20 07:05:51;;;;;;;1.67;1.40;;;6.50;98.20;;;;;;6204795;23;20945;-85
2024/02/20 07:08:24;;;;;;;1.60;1.30;;;6.50;98.20;;;;;;6199562;23;20428;-87
2024/02/20 07:11:04;;;;;;;1.60;1.30;;;6.60;98.20;;;;;;6203581;22;20458;-87
2024/02/20 07:13:37;;;;;;;1.60;1.30;;;6.60;98.20;;;;;;6206423;23;20450;-88
2024/02/20 07:16:13;;;;;;;1.60;1.20;;;6.60;98.20;;;;;;6206802;23;20417;-87
2024/02/20 07:19:02;;;;;;;1.60;1.30;;;6.70;98.20;;;;;;6206055;23;20453;-86
2024/02/20 07:21:39;;;;;;;1.60;1.30;;;6.70;98.20;;;;;;6198977;23;20534;-86
2024/02/20 07:24:32;;;;;;;;;;;;;;;;;;;;;
2024/02/20 07:27:08;;;;;;;1.70;1.50;;;6.80;98.20;;;;;;6185169;23;20537;-87
2024/02/20 07:33:43;;;;;;;1.60;1.30;;;6.90;98.20;;;;;;6050953;23;20522;-88
2024/02/20 07:36:11;;;;;;;1.60;1.30;;;6.90;98.20;;;;;;6185834;23;20471;-89
2024/02/20 07:38:40;;;;;;;1.60;1.20;;;6.90;98.20;;;;;;6213668;23;20477;-88
2024/02/20 07:41:08;;;;;;;1.60;1.30;;;6.90;98.20;;;;;;6212349;23;20715;-88
2024/02/20 07:43:36;;;;;;;1.70;1.33;;;7.00;98.20;;;;;;6209718;23;20423;-87
2024/02/20 07:46:03;;;;;;;1.63;1.30;;;7.00;98.20;;;;;;6202026;23;20429;-88
2024/02/20 07:48:32;;;;;;;1.67;1.40;;;7.00;98.20;;;;;;6207512;23;20419;-88
2024/02/20 07:51:07;;;;;;;1.70;1.40;;;7.10;98.20;;;;;;6214471;23;20450;-89
2024/02/20 07:53:35;;;;;;;1.63;1.30;;;7.20;98.20;;;;;;6203392;23;20461;-88
2024/02/20 07:56:08;;;;;;;1.70;1.40;;;7.20;98.20;;;;;;6210958;23;20497;-88
2024/02/20 07:58:37;;;;;;;1.60;1.20;;;7.30;98.20;;;;;;6206804;23;20781;-87
2024/02/20 08:01:08;;;;;;;1.60;1.20;;;7.30;98.20;;;;;;6202822;23;20481;-87
2024/02/20 08:03:37;;;;;;;1.60;1.30;;;7.40;98.20;;;;;;6198543;23;20415;-87
2024/02/20 08:06:04;;;;;;;1.60;1.20;;;7.50;98.20;;;;;;6200957;23;20426;-87
2024/02/20 08:08:32;;;;;;;1.60;1.30;;;7.50;98.20;;;;;;6199197;23;20419;-89
2024/02/20 08:11:02;;;;;;;1.60;1.30;;;7.60;98.20;;;;;;6212588;23;20460;-87
2024/02/20 08:13:42;;;;;;;1.60;1.20;;;7.70;98.20;;;;;;6205730;23;20457;-87
2024/02/20 08:16:12;;;;;;;1.60;1.20;;;7.70;98.20;;;;;;6213370;23;20427;-89
2024/02/20 08:19:20;;;;;;;1.60;1.30;;;7.80;98.20;;;;;;6211858;23;20455;-88
2024/02/20 08:22:03;;;;;;;1.60;1.20;;;7.80;98.20;;;;;;6205821;23;20447;-88
2024/02/20 08:24:47;;;;;;;1.67;1.30;;;7.90;98.20;;;;;;6226665;23;20418;-88
2024/02/20 08:27:19;;;;;;;1.60;1.20;;;8.00;98.20;;;;;;6189723;23;20544;-87
2024/02/20 08:29:58;;;;;;;1.60;1.30;;;8.00;98.20;;;;;;6228458;23;20434;-88
2024/02/20 08:35:27;;;;;;;1.67;1.40;;;8.20;98.20;;;;;;6226581;23;20394;-86
2024/02/20 08:38:30;;;;;;;1.60;1.20;;;8.30;98.20;;;;;;6184734;23;20454;-89
2024/02/20 08:41:05;;;;;;;1.60;1.20;;;8.30;98.20;;;;;;6212778;23;20442;-88
2024/02/20 08:46:26;;;;;;;1.60;1.20;;;8.50;98.20;;;;;;6192576;23;20475;-86
2024/02/20 08:49:15;;;;;;;1.67;1.30;;;8.50;98.20;;;;;;6213391;23;20399;-87
2024/02/20 08:51:49;;;;;;;1.60;1.20;;;8.60;98.20;;;;;;6199357;23;20471;-87
2024/02/20 09:01:54;;;;;;;1.63;1.20;;;8.80;98.20;;;;;;6195223;23;20435;-88
2024/02/20 09:04:32;;;;;;;1.60;1.20;;;9.00;98.20;;;;;;6205436;23;20442;-88
2024/02/20 09:12:26;;;;;;;1.67;1.37;;;9.20;98.20;;;;;;6219406;22;20455;-86
2024/02/20 09:15:02;;;;;;;1.60;1.10;;;9.30;98.20;;;;;;6230099;23;20510;-86
2024/02/20 09:17:43;;;;;;;1.70;1.20;;;9.40;98.20;;;;;;6186778;23;20443;-86
2024/02/20 09:20:14;;;;;;;1.60;1.10;;;9.50;98.20;;;;;;6232005;23;20935;-88
2024/02/20 09:22:46;;;;;;;1.60;1.10;;;9.50;98.20;;;;;;6183123;23;20523;-88
2024/02/20 09:28:29;;;;;;;1.60;1.10;;;9.70;98.20;;;;;;6176452;23;20438;-87
2024/02/20 09:31:14;;;;;;;1.60;1.10;;;9.80;98.20;;;;;;6216677;23;20935;-88
2024/02/20 09:33:43;;;;;;;1.60;1.10;;;9.80;98.20;;;;;;6210264;23;20429;-86
2024/02/20 09:36:13;;;;;;;1.60;1.20;;;9.90;98.20;;;;;;6211174;23;20475;-87
2024/02/20 09:38:41;;;;;;;1.60;1.10;;;9.90;98.20;;;;;;6211744;23;20446;-89
2024/02/20 09:41:09;;;;;;;1.70;1.50;;;9.90;98.20;;;;;;6209662;23;20916;-88
2024/02/20 09:43:37;;;;;;;1.60;1.20;;;10.00;98.20;;;;;;6211829;23;20453;-88
2024/02/20 09:46:21;;;;;;;1.60;1.20;;;10.00;98.20;;;;;;6213508;23;20419;-86
2024/02/20 09:48:50;;;;;;;1.60;1.20;;;10.10;98.20;;;;;;6209830;23;20414;-85
2024/02/20 09:51:20;;;;;;;1.60;1.10;;;10.10;98.20;;;;;;6208105;23;20539;-87
2024/02/20 09:53:58;;;;;;;1.60;1.10;;;10.10;98.20;;;;;;6211531;23;20938;-86
2024/02/20 09:56:26;;;;;;;2.73;2.53;;;10.20;98.20;;;;;;6204699;23;20538;-86
2024/02/20 09:58:52;;;;;;;1.70;1.30;;;10.20;98.20;;;;;;6204919;23;20787;-86
2024/02/20 10:01:21;;;;;;;1.60;1.10;;;10.30;98.20;;;;;;6197870;23;20472;-86
2024/02/20 10:03:55;;;;;;;1.60;1.20;;;10.30;98.20;;;;;;6202762;23;20423;-86
2024/02/20 10:06:29;;;;;;;1.60;1.10;;;10.30;98.20;;;;;;6199335;23;21124;-86
2024/02/20 10:09:09;;;;;;;1.80;1.23;;;10.40;98.20;;;;;;6207394;23;20418;-88
2024/02/20 10:14:08;;;;;;;1.60;1.20;;;10.40;98.20;;;;;;6217643;23;20487;-88
2024/02/20 10:16:39;;;;;;;1.60;1.10;;;10.40;98.20;;;;;;6196521;23;20439;-86
2024/02/20 10:19:09;;;;;;;1.60;1.20;;;10.40;98.20;;;;;;6211430;23;20443;-85
2024/02/20 10:21:52;;;;;;;1.60;1.10;;;10.40;98.20;;;;;;6201928;23;20512;-87
2024/02/20 10:24:19;;;;;;;1.60;1.10;;;10.40;98.20;;;;;;6217237;23;20505;-88
2024/02/20 10:26:54;;;;;;;1.60;1.20;;;10.40;98.20;;;;;;6198710;23;20444;-86
2024/02/20 10:29:28;;;;;;;1.60;1.20;;;10.50;98.20;;;;;;6216720;23;20410;-87
2024/02/20 10:31:55;;;;;;;1.60;1.07;;;10.50;98.20;;;;;;6195731;23;20836;-86
2024/02/20 10:34:26;;;;;;;1.60;1.10;;;10.60;98.20;;;;;;6217224;23;20446;-87
2024/02/20 10:37:12;;;;;;;1.60;1.10;;;10.60;98.20;;;;;;6197159;23;20451;-87
2024/02/20 10:39:41;;;;;;;1.60;1.10;;;10.60;98.20;;;;;;6220729;23;20986;-84
2024/02/20 10:42:10;;;;;;;1.60;1.10;;;10.60;98.20;;;;;;6185563;23;20479;-87
2024/02/20 10:44:39;;;;;;;1.60;1.30;;;10.60;98.20;;;;;;6218568;23;20473;-87
2024/02/20 10:47:11;;;;;;;1.60;1.20;;;10.60;98.20;;;;;;6183301;23;20455;-88
2024/02/20 10:49:43;;;;;;;1.60;1.13;;;10.60;98.20;;;;;;6217484;23;20481;-87
2024/02/20 10:52:10;;;;;;;1.60;1.10;;;10.60;98.20;;;;;;6186346;22;20475;-83
2024/02/20 10:54:40;;;;;;;1.60;1.10;;;10.60;98.20;;;;;;6208837;23;20494;-84
2024/02/20 10:57:10;;;;;;;1.60;1.10;;;10.60;98.20;;;;;;6186712;23;21034;-81
2024/02/20 10:59:43;;;;;;;1.60;1.10;;;10.60;98.20;;;;;;6220573;23;20447;-84
2024/02/20 11:02:10;;;;;;;1.60;1.10;;;10.70;98.20;;;;;;6187848;23;21058;-84
2024/02/20 11:04:39;;;;;;;1.70;1.50;;;10.80;98.20;;;;;;6209854;23;20458;-84
2024/02/20 11:07:07;;;;;;;1.60;1.20;;;10.80;98.20;;;;;;6186278;23;20952;-83
2024/02/20 11:09:33;;;;;;;1.60;1.10;;;10.90;98.20;;;;;;6222724;23;20411;-84
2024/02/20 11:12:07;;;;;;;1.60;1.10;;;10.90;98.20;;;;;;6190332;23;20539;-84
2024/02/20 11:14:33;;;;;;;1.60;1.20;;;11.00;98.20;;;;;;6212810;23;20404;-84
2024/02/20 11:16:59;;;;;;;1.60;1.07;;;11.00;98.20;;;;;;6190184;23;20463;-84
2024/02/20 11:19:27;;;;;;;1.60;1.10;;;11.10;98.20;;;;;;6207798;23;20447;-83
2024/02/20 11:22:07;;;;;;;1.60;1.10;;;11.10;98.20;;;;;;6192033;23;20677;-83
2024/02/20 11:24:34;;;;;;;1.60;1.00;;;11.20;98.20;;;;;;6207696;23;20399;-83
2024/02/20 11:27:03;;;;;;;1.60;1.10;;;11.20;98.20;;;;;;6186323;23;20518;-84
2024/02/20 11:29:31;;;;;;;1.60;1.10;;;11.30;98.20;;;;;;6206531;23;20660;-83
2024/02/20 11:32:10;;;;;;;1.60;1.10;;;11.40;98.20;;;;;;6186857;23;20527;-84
2024/02/20 11:34:37;;;;;;;1.60;1.00;;;11.40;98.20;;;;;;6221231;23;20850;-84
2024/02/20 11:37:09;;;;;;;1.60;1.03;;;11.40;98.20;;;;;;6186593;23;20448;-83
2024/02/20 11:39:40;;;;;;;1.60;1.10;;;11.40;98.20;;;;;;6209481;23;20471;-84
2024/02/20 11:46:04;;;;;;;1.60;1.00;;;11.50;98.20;;;;;;6000007;23;20426;-84
2024/02/20 11:48:37;;;;;;;1.60;1.10;;;11.50;98.20;;;;;;6106098;23;20411;-82
2024/02/20 11:51:25;;;;;;;4.53;1.80;;;11.60;98.20;;;;;;6197653;23;21003;-83
2024/02/20 11:54:03;;;;;;;1.57;1.00;;;11.70;98.20;;;;;;6199694;23;20457;-85
2024/02/20 11:56:30;;;;;;;1.60;1.10;;;11.70;98.20;;;;;;6199859;23;20467;-83
2024/02/20 11:58:57;;;;;;;1.60;1.10;;;11.70;98.20;;;;;;6201295;23;20530;-82
2024/02/20 12:01:26;;;;;;;1.60;1.00;;;11.80;98.20;;;;;;6194123;23;20861;-82
2024/02/20 12:03:53;;;;;;;1.60;1.00;;;11.90;98.20;;;;;;6201152;23;20531;-83
2024/02/20 12:06:27;;;;;;;1.60;1.00;;;11.90;98.20;;;;;;6200723;23;20471;-83
2024/02/20 12:08:56;;;;;;;1.60;1.10;;;12.00;98.20;;;;;;6198580;23;20982;-82
2024/02/20 12:11:26;;;;;;;1.60;1.00;;;12.00;98.20;;;;;;6198903;23;20507;-82
2024/02/20 12:13:54;;;;;;;1.70;1.40;;;12.00;98.20;;;;;;6200345;23;20414;-83
2024/02/20 12:16:22;;;;;;;1.60;1.00;;;12.00;98.20;;;;;;6192213;23;20455;-83
2024/02/20 12:18:51;;;;;;;1.60;1.00;;;12.00;98.20;;;;;;6196645;23;20451;-82
2024/02/20 12:21:24;;;;;;;1.60;1.10;;;12.00;98.20;;;;;;6191787;23;20452;-82
2024/02/20 12:23:57;;;;;;;1.70;1.60;;;12.10;98.20;;;;;;6198619;23;20399;-82
2024/02/20 12:26:25;;;;;;;1.60;1.00;;;12.10;98.20;;;;;;6191770;23;20686;-82
2024/02/20 12:28:54;;;;;;;1.60;1.10;;;12.10;98.20;;;;;;6199435;23;20418;-82
2024/02/20 12:31:52;;;;;;;1.57;1.00;;;12.00;98.20;;;;;;6194219;23;20530;-83
2024/02/20 12:34:20;;;;;;;1.60;1.00;;;12.10;98.20;;;;;;6203962;23;20438;-82
2024/02/20 12:36:48;;;;;;;1.60;1.00;;;12.10;98.20;;;;;;6187743;23;20869;-83
2024/02/20 12:39:17;;;;;;;1.57;1.00;;;12.20;98.20;;;;;;6203002;23;20474;-82
2024/02/20 12:41:46;;;;;;;1.60;1.00;;;12.20;98.20;;;;;;6194543;23;20458;-82
2024/02/20 12:44:13;;;;;;;1.60;1.10;;;12.30;98.20;;;;;;6211010;23;20419;-82
2024/02/20 12:46:40;;;;;;;1.60;1.00;;;12.30;98.20;;;;;;6189893;23;20542;-83
2024/02/20 12:49:09;;;;;;;1.60;1.00;;;12.30;98.20;;;;;;6198909;23;20453;-83
2024/02/20 12:51:42;;;;;;;1.60;1.00;;;12.30;98.20;;;;;;6194516;23;20519;-83
2024/02/20 12:54:09;;;;;;;1.60;1.30;;;12.40;98.20;;;;;;6201486;23;20515;-82
2024/02/20 12:56:37;;;;;;;1.60;1.13;;;12.40;98.20;;;;;;6189685;23;20455;-83
2024/02/20 12:59:04;;;;;;;1.60;1.00;;;12.40;98.20;;;;;;6205166;23;20517;-82
2024/02/20 13:01:31;;;;;;;1.60;1.10;;;12.50;98.20;;;;;;6193824;23;20540;-83
2024/02/20 13:04:02;;;;;;;1.60;1.00;;;12.50;98.20;;;;;;6199840;23;20804;-85
2024/02/20 13:06:29;;;;;;;1.60;1.00;;;12.50;98.20;;;;;;6197862;23;20447;-85
2024/02/20 13:08:59;;;;;;;1.60;1.10;;;12.60;98.20;;;;;;6199019;23;20421;-84
2024/02/20 13:11:30;;;;;;;1.60;1.00;;;12.60;98.20;;;;;;6193710;23;20756;-84
2024/02/20 13:14:07;;;;;;;1.57;1.00;;;12.60;98.20;;;;;;6201125;23;20430;-84
2024/02/20 13:16:34;;;;;;;1.60;1.10;;;12.70;98.20;;;;;;6196528;23;20448;-83
2024/02/20 13:19:02;;;;;;;1.53;0.90;;;12.70;98.20;;;;;;6209496;23;20475;-83
2024/02/20 13:21:29;;;;;;;1.60;1.00;;;12.80;98.20;;;;;;6191011;23;20451;-84
2024/02/20 13:23:57;;;;;;;1.60;1.00;;;13.00;98.20;;;;;;6197456;23;20490;-82
2024/02/20 13:26:26;;;;;;;1.60;1.00;;;13.10;98.20;;;;;;6192118;23;20995;-83
2024/02/20 13:28:52;;;;;;;1.53;1.00;;;13.30;98.20;;;;;;6207643;23;20505;-83
2024/02/20 13:31:21;;;;;;;1.60;1.00;;;13.50;98.20;;;;;;6192775;23;20447;-83
2024/02/20 13:33:49;;;;;;;1.63;1.10;;;13.70;98.20;;;;;;6204986;23;20415;-83
2024/02/20 13:36:16;;;;;;;1.60;1.00;;;13.80;98.20;;;;;;6194617;23;20711;-84
2024/02/20 13:38:43;;;;;;;1.60;1.00;;;13.90;98.20;;;;;;6208739;23;20966;-83
2024/02/20 13:41:12;;;;;;;1.60;1.00;;;13.80;98.20;;;;;;6199471;23;20470;-83